createdAt,value
2023-08-02T00:00:26.351Z,999.83
2023-08-02T00:01:26.338Z,999.81
2023-08-02T00:02:27.643Z,999.81
2023-08-02T00:03:26.326Z,999.82
2023-08-02T00:04:26.318Z,999.79
2023-08-02T00:05:26.300Z,999.76
2023-08-02T00:06:26.357Z,999.76
2023-08-02T00:07:26.265Z,999.72
2023-08-02T00:08:26.252Z,999.72
2023-08-02T00:09:26.270Z,999.71
2023-08-02T00:10:26.232Z,999.71
2023-08-02T00:11:26.209Z,999.64
2023-08-02T00:12:26.196Z,999.62
2023-08-02T00:13:26.172Z,999.66
2023-08-02T00:14:26.177Z,999.62
2023-08-02T00:15:26.149Z,999.63
2023-08-02T00:16:26.173Z,999.63
2023-08-02T00:17:26.174Z,999.61
2023-08-02T00:18:26.118Z,999.57
2023-08-02T00:19:26.150Z,999.52
2023-08-02T00:20:26.097Z,999.53
2023-08-02T00:21:26.080Z,999.50
2023-08-02T00:22:26.047Z,999.45
2023-08-02T00:23:26.067Z,999.48
2023-08-02T00:24:26.030Z,999.42
2023-08-02T00:25:26.016Z,999.48
2023-08-02T00:26:26.005Z,999.48
2023-08-02T00:27:25.976Z,999.47
2023-08-02T00:28:25.980Z,999.46
2023-08-02T00:29:26.033Z,999.51
2023-08-02T00:30:26.008Z,999.58
2023-08-02T00:31:25.926Z,999.49
2023-08-02T00:32:25.989Z,999.53
2023-08-02T00:33:34.815Z,999.53
2023-08-02T00:34:25.880Z,999.50
2023-08-02T00:35:25.865Z,999.49
2023-08-02T00:36:25.875Z,999.48
2023-08-02T00:37:25.847Z,999.46
2023-08-02T00:38:25.838Z,999.44
2023-08-02T00:39:25.844Z,999.45
2023-08-02T00:40:25.804Z,999.43
2023-08-02T00:41:25.778Z,999.40
2023-08-02T00:42:25.772Z,999.43
2023-08-02T00:43:25.749Z,999.37
2023-08-02T00:44:25.759Z,999.44
2023-08-02T00:45:25.735Z,999.44
2023-08-02T00:46:25.764Z,999.35
2023-08-02T00:47:25.832Z,999.33
2023-08-02T00:48:25.700Z,999.31
2023-08-02T00:49:25.685Z,999.32
2023-08-02T00:50:25.653Z,999.27
2023-08-02T00:51:25.650Z,999.22
2023-08-02T00:52:25.648Z,999.20
2023-08-02T00:53:25.617Z,999.18
2023-08-02T00:54:25.644Z,999.16
2023-08-02T00:55:25.587Z,999.18
2023-08-02T00:56:25.583Z,999.27
2023-08-02T00:57:25.580Z,999.34
2023-08-02T00:58:25.602Z,999.32
2023-08-02T00:59:25.583Z,999.33
2023-08-02T01:00:25.536Z,999.27
2023-08-02T01:01:25.554Z,999.25
2023-08-02T01:02:25.548Z,999.22
2023-08-02T01:03:25.495Z,999.17
2023-08-02T01:04:25.494Z,999.20
2023-08-02T01:05:25.515Z,999.21
2023-08-02T01:06:25.578Z,999.17
2023-08-02T01:07:25.529Z,999.20
2023-08-02T01:08:25.436Z,999.16
2023-08-02T01:09:25.429Z,999.15
2023-08-02T01:10:25.446Z,999.15
2023-08-02T01:11:25.380Z,999.13
2023-08-02T01:12:25.410Z,999.09
2023-08-02T01:13:25.372Z,999.06
2023-08-02T01:14:25.343Z,999.04
2023-08-02T01:15:25.377Z,998.99
2023-08-02T01:16:32.676Z,999.01
2023-08-02T01:17:28.463Z,998.94
2023-08-02T01:18:25.317Z,998.91
2023-08-02T01:19:25.278Z,998.90
2023-08-02T01:20:25.278Z,998.85
2023-08-02T01:21:25.250Z,998.83
2023-08-02T01:22:25.251Z,998.80
2023-08-02T01:23:25.225Z,998.78
2023-08-02T01:24:25.241Z,998.87
2023-08-02T01:25:25.224Z,998.89
2023-08-02T01:26:25.205Z,998.85
2023-08-02T01:27:25.197Z,998.88
2023-08-02T01:28:25.159Z,998.94
2023-08-02T01:29:25.169Z,998.95
2023-08-02T01:30:25.150Z,998.94
2023-08-02T01:31:25.145Z,998.92
2023-08-02T01:32:25.167Z,998.87
2023-08-02T01:33:25.142Z,998.85
2023-08-02T01:34:25.088Z,998.86
2023-08-02T01:35:25.110Z,998.88
2023-08-02T01:36:25.042Z,998.90
2023-08-02T01:37:25.040Z,998.85
2023-08-02T01:38:25.039Z,998.92
2023-08-02T01:39:25.006Z,998.98
2023-08-02T01:40:25.027Z,998.97
2023-08-02T01:41:25.003Z,999.00
2023-08-02T01:42:24.982Z,998.98
2023-08-02T01:43:24.977Z,998.97
2023-08-02T01:44:24.958Z,998.99
2023-08-02T01:45:24.959Z,998.90
2023-08-02T01:46:24.923Z,998.84
2023-08-02T01:47:24.972Z,998.82
2023-08-02T01:48:24.917Z,998.80
2023-08-02T01:49:24.887Z,998.74
2023-08-02T01:50:26.252Z,998.78
2023-08-02T01:51:24.845Z,998.73
2023-08-02T01:52:24.846Z,998.66
2023-08-02T01:53:24.847Z,998.66
2023-08-02T01:54:24.831Z,998.60
2023-08-02T01:55:25.308Z,998.57
2023-08-02T01:56:24.800Z,998.56
2023-08-02T01:57:24.796Z,998.50
2023-08-02T01:58:24.769Z,998.51
2023-08-02T01:59:24.760Z,998.42
2023-08-02T02:00:24.758Z,998.41
2023-08-02T02:01:24.779Z,998.44
2023-08-02T02:02:24.768Z,998.35
2023-08-02T02:03:24.763Z,998.41
2023-08-02T02:04:24.688Z,998.35
2023-08-02T02:05:24.698Z,998.40
2023-08-02T02:06:24.693Z,998.26
2023-08-02T02:07:24.647Z,998.23
2023-08-02T02:08:24.641Z,998.32
2023-08-02T02:09:24.610Z,998.25
2023-08-02T02:10:24.654Z,998.29
2023-08-02T02:11:24.602Z,998.20
2023-08-02T02:12:24.604Z,998.25
2023-08-02T02:13:24.572Z,998.22
2023-08-02T02:14:24.584Z,998.23
2023-08-02T02:15:24.577Z,998.30
2023-08-02T02:16:24.547Z,998.30
2023-08-02T02:17:24.520Z,998.25
2023-08-02T02:18:24.530Z,998.28
2023-08-02T02:19:24.490Z,998.27
2023-08-02T02:20:24.490Z,998.25
2023-08-02T02:21:24.453Z,998.29
2023-08-02T02:22:24.524Z,998.29
2023-08-02T02:23:24.449Z,998.19
2023-08-02T02:24:24.416Z,998.15
2023-08-02T02:25:24.419Z,998.16
2023-08-02T02:26:24.419Z,998.14
2023-08-02T02:27:24.411Z,998.07
2023-08-02T02:28:24.450Z,998.07
2023-08-02T02:29:24.436Z,998.00
2023-08-02T02:30:24.426Z,997.96
2023-08-02T02:31:24.482Z,997.95
2023-08-02T02:32:24.388Z,997.92
2023-08-02T02:33:24.384Z,997.88
2023-08-02T02:34:24.300Z,997.77
2023-08-02T02:35:24.370Z,997.81
2023-08-02T02:36:24.344Z,997.72
2023-08-02T02:37:24.350Z,997.80
2023-08-02T02:38:24.370Z,997.82
2023-08-02T02:39:24.235Z,997.88
2023-08-02T02:40:24.221Z,997.82
2023-08-02T02:41:24.202Z,997.85
2023-08-02T02:42:24.198Z,997.80
2023-08-02T02:43:24.186Z,997.74
2023-08-02T02:44:24.159Z,997.65
2023-08-02T02:45:24.152Z,997.54
2023-08-02T02:46:24.215Z,997.52
2023-08-02T02:47:24.112Z,997.54
2023-08-02T02:48:24.180Z,997.49
2023-08-02T02:49:24.103Z,997.45
2023-08-02T02:50:24.110Z,997.53
2023-08-02T02:51:24.072Z,997.48
2023-08-02T02:52:24.080Z,997.51
2023-08-02T02:53:24.052Z,997.56
2023-08-02T02:54:24.043Z,997.51
2023-08-02T02:55:24.026Z,997.46
2023-08-02T02:56:24.001Z,997.42
2023-08-02T02:57:24.038Z,997.34
2023-08-02T02:58:23.983Z,997.29
2023-08-02T02:59:23.955Z,997.27
2023-08-02T03:00:23.983Z,997.22
2023-08-02T03:01:23.977Z,997.22
2023-08-02T03:02:24.028Z,997.24
2023-08-02T03:03:23.944Z,997.23
2023-08-02T03:04:23.924Z,997.22
2023-08-02T03:05:23.916Z,997.21
2023-08-02T03:06:23.920Z,997.19
2023-08-02T03:07:23.858Z,997.17
2023-08-02T03:08:23.841Z,997.16
2023-08-02T03:09:23.876Z,997.12
2023-08-02T03:10:23.836Z,997.11
2023-08-02T03:11:23.803Z,997.10
2023-08-02T03:12:23.838Z,997.12
2023-08-02T03:13:23.766Z,997.13
2023-08-02T03:14:23.767Z,997.12
2023-08-02T03:15:23.756Z,997.19
2023-08-02T03:16:23.825Z,997.23
2023-08-02T03:17:23.721Z,997.27
2023-08-02T03:18:23.752Z,997.25
2023-08-02T03:19:23.689Z,997.29
2023-08-02T03:20:23.710Z,997.19
2023-08-02T03:21:23.684Z,997.09
2023-08-02T03:22:23.652Z,997.08
2023-08-02T03:23:23.658Z,997.06
2023-08-02T03:24:23.645Z,997.05
2023-08-02T03:25:23.637Z,997.09
2023-08-02T03:26:23.607Z,997.14
2023-08-02T03:27:23.586Z,997.08
2023-08-02T03:28:23.589Z,997.14
2023-08-02T03:29:23.660Z,997.14
2023-08-02T03:30:23.600Z,997.10
2023-08-02T03:31:23.570Z,997.13
2023-08-02T03:32:23.563Z,997.16
2023-08-02T03:33:23.516Z,997.15
2023-08-02T03:34:23.502Z,997.12
2023-08-02T03:35:23.523Z,997.16
2023-08-02T03:36:23.483Z,997.11
2023-08-02T03:37:23.453Z,997.06
2023-08-02T03:38:23.478Z,997.00
2023-08-02T03:39:23.431Z,997.00
2023-08-02T03:40:23.442Z,997.03
2023-08-02T03:41:23.407Z,997.09
2023-08-02T03:42:23.414Z,997.03
2023-08-02T03:43:23.385Z,996.91
2023-08-02T03:44:23.371Z,996.87
2023-08-02T03:45:23.367Z,996.88
2023-08-02T03:46:23.410Z,996.77
2023-08-02T03:47:23.358Z,996.69
2023-08-02T03:48:23.304Z,996.64
2023-08-02T03:49:23.296Z,996.65
2023-08-02T03:50:23.298Z,996.61
2023-08-02T03:51:23.324Z,996.62
2023-08-02T03:52:23.261Z,996.66
2023-08-02T03:53:23.235Z,996.56
2023-08-02T03:54:23.226Z,996.57
2023-08-02T03:55:23.237Z,996.40
2023-08-02T03:56:23.269Z,996.38
2023-08-02T03:57:23.186Z,996.37
2023-08-02T03:58:23.185Z,996.36
2023-08-02T03:59:23.185Z,996.34
2023-08-02T04:00:23.175Z,996.35
2023-08-02T04:01:23.155Z,996.36
2023-08-02T04:02:23.204Z,996.51
2023-08-02T04:03:23.106Z,996.45
2023-08-02T04:04:23.177Z,996.49
2023-08-02T04:05:23.101Z,996.48
2023-08-02T04:06:23.182Z,996.40
2023-08-02T04:07:23.074Z,996.44
2023-08-02T04:08:23.094Z,996.47
2023-08-02T04:09:23.037Z,996.45
2023-08-02T04:10:23.052Z,996.50
2023-08-02T04:11:23.009Z,996.53
2023-08-02T04:12:22.993Z,996.42
2023-08-02T04:13:23.023Z,996.45
2023-08-02T04:14:22.968Z,996.38
2023-08-02T04:15:22.980Z,996.41
2023-08-02T04:16:22.969Z,996.38
2023-08-02T04:17:22.952Z,996.38
2023-08-02T04:18:22.910Z,996.31
2023-08-02T04:19:22.915Z,996.42
2023-08-02T04:20:22.907Z,996.41
2023-08-02T04:21:22.869Z,996.43
2023-08-02T04:22:22.902Z,996.33
2023-08-02T04:23:22.835Z,996.41
2023-08-02T04:24:22.838Z,996.38
2023-08-02T04:25:22.841Z,996.43
2023-08-02T04:26:22.819Z,996.39
2023-08-02T04:27:22.788Z,996.52
2023-08-02T04:28:22.764Z,996.44
2023-08-02T04:29:22.766Z,996.40
2023-08-02T04:30:22.758Z,996.43
2023-08-02T04:31:22.842Z,996.35
2023-08-02T04:32:22.769Z,996.23
2023-08-02T04:33:22.851Z,996.18
2023-08-02T04:34:22.757Z,996.13
2023-08-02T04:35:22.715Z,996.11
2023-08-02T04:36:22.662Z,995.95
2023-08-02T04:37:22.688Z,995.92
2023-08-02T04:38:22.662Z,995.90
2023-08-02T04:39:22.649Z,995.93
2023-08-02T04:40:22.660Z,995.81
2023-08-02T04:41:22.612Z,995.76
2023-08-02T04:42:22.597Z,995.70
2023-08-02T04:43:22.568Z,995.64
2023-08-02T04:44:22.563Z,995.61
2023-08-02T04:45:22.602Z,995.56
2023-08-02T04:46:22.577Z,995.53
2023-08-02T04:47:22.556Z,995.50
2023-08-02T04:48:22.540Z,995.40
2023-08-02T04:49:22.521Z,995.43
2023-08-02T04:50:22.565Z,995.37
2023-08-02T04:51:22.516Z,995.38
2023-08-02T04:52:23.988Z,995.37
2023-08-02T04:53:22.458Z,995.33
2023-08-02T04:54:22.429Z,995.32
2023-08-02T04:55:22.453Z,995.31
2023-08-02T04:56:22.439Z,995.29
2023-08-02T04:57:22.438Z,995.28
2023-08-02T04:58:22.419Z,995.34
2023-08-02T04:59:22.388Z,995.34
2023-08-02T05:00:22.350Z,995.24
2023-08-02T05:01:22.395Z,995.19
2023-08-02T05:02:22.347Z,995.16
2023-08-02T05:03:22.341Z,995.05
2023-08-02T05:04:22.310Z,995.10
2023-08-02T05:05:22.297Z,995.05
2023-08-02T05:06:22.351Z,995.04
2023-08-02T05:07:22.277Z,995.00
2023-08-02T05:08:22.261Z,995.01
2023-08-02T05:09:22.277Z,995.12
2023-08-02T05:10:22.229Z,995.11
2023-08-02T05:11:22.224Z,995.14
2023-08-02T05:12:22.225Z,995.17
2023-08-02T05:13:22.185Z,995.13
2023-08-02T05:14:22.166Z,995.12
2023-08-02T05:15:22.177Z,995.08
2023-08-02T05:16:22.163Z,995.11
2023-08-02T05:17:22.139Z,995.07
2023-08-02T05:18:22.117Z,995.02
2023-08-02T05:19:22.105Z,995.01
2023-08-02T05:20:22.082Z,994.89
2023-08-02T05:21:22.099Z,994.87
2023-08-02T05:22:22.070Z,994.83
2023-08-02T05:23:22.074Z,994.79
2023-08-02T05:24:22.034Z,994.77
2023-08-02T05:25:22.024Z,994.77
2023-08-02T05:26:22.023Z,994.73
2023-08-02T05:27:21.996Z,994.76
2023-08-02T05:28:22.001Z,994.73
2023-08-02T05:29:21.986Z,994.82
2023-08-02T05:30:21.986Z,994.79
2023-08-02T05:31:22.063Z,994.79
2023-08-02T05:32:21.927Z,994.66
2023-08-02T05:33:21.920Z,994.55
2023-08-02T05:34:21.903Z,994.41
2023-08-02T05:35:21.904Z,994.32
2023-08-02T05:36:21.907Z,994.23
2023-08-02T05:37:21.870Z,994.24
2023-08-02T05:38:21.880Z,994.33
2023-08-02T05:39:21.846Z,994.29
2023-08-02T05:40:21.833Z,994.32
2023-08-02T05:41:21.846Z,994.34
2023-08-02T05:42:21.795Z,994.23
2023-08-02T05:43:21.790Z,994.24
2023-08-02T05:44:21.798Z,994.34
2023-08-02T05:45:21.865Z,994.22
2023-08-02T05:46:21.809Z,994.14
2023-08-02T05:47:21.776Z,994.14
2023-08-02T05:48:21.728Z,994.11
2023-08-02T05:49:21.704Z,994.13
2023-08-02T05:50:21.751Z,994.19
2023-08-02T05:51:21.701Z,994.23
2023-08-02T05:52:21.664Z,994.32
2023-08-02T05:53:21.653Z,994.30
2023-08-02T05:54:21.633Z,994.18
2023-08-02T05:55:21.620Z,994.23
2023-08-02T05:56:21.631Z,994.11
2023-08-02T05:57:21.605Z,994.10
2023-08-02T05:58:21.581Z,994.16
2023-08-02T05:59:21.570Z,994.09
2023-08-02T06:00:21.549Z,994.09
2023-08-02T06:01:21.622Z,994.10
2023-08-02T06:02:21.600Z,994.10
2023-08-02T06:03:21.545Z,994.08
2023-08-02T06:04:21.600Z,994.12
2023-08-02T06:05:21.520Z,994.10
2023-08-02T06:06:21.553Z,994.10
2023-08-02T06:07:21.484Z,994.04
2023-08-02T06:08:21.447Z,993.94
2023-08-02T06:09:21.461Z,994.02
2023-08-02T06:10:21.463Z,993.96
2023-08-02T06:11:21.423Z,993.90
2023-08-02T06:12:21.420Z,993.91
2023-08-02T06:13:21.404Z,993.87
2023-08-02T06:14:21.401Z,993.81
2023-08-02T06:15:21.372Z,993.75
2023-08-02T06:16:21.403Z,993.73
2023-08-02T06:17:21.330Z,993.76
2023-08-02T06:18:21.323Z,993.75
2023-08-02T06:19:21.329Z,993.76
2023-08-02T06:20:21.314Z,993.81
2023-08-02T06:21:21.337Z,993.84
2023-08-02T06:22:21.280Z,993.80
2023-08-02T06:23:21.263Z,993.71
2023-08-02T06:24:21.255Z,993.72
2023-08-02T06:25:21.246Z,993.74
2023-08-02T06:26:21.277Z,993.73
2023-08-02T06:27:21.235Z,993.65
2023-08-02T06:28:21.199Z,993.66
2023-08-02T06:29:21.182Z,993.60
2023-08-02T06:30:21.151Z,993.55
2023-08-02T06:31:21.240Z,993.56
2023-08-02T06:32:21.138Z,993.51
2023-08-02T06:33:21.143Z,993.43
2023-08-02T06:38:58.854Z,993.46
2023-08-02T06:39:58.137Z,993.39
2023-08-02T06:40:58.104Z,993.32
2023-08-02T06:41:58.044Z,993.34
2023-08-02T06:42:58.004Z,993.23
2023-08-02T06:43:58.023Z,993.30
2023-08-02T06:44:57.991Z,993.18
2023-08-02T06:45:58.119Z,993.23
2023-08-02T06:46:58.166Z,993.11
2023-08-02T06:47:58.012Z,993.11
2023-08-02T06:48:58.106Z,993.06
2023-08-02T06:49:57.932Z,993.03
2023-08-02T06:50:57.931Z,992.87
2023-08-02T06:51:57.876Z,992.88
2023-08-02T06:53:12.224Z,992.94
2023-08-02T06:54:11.213Z,992.85
2023-08-02T06:54:58.016Z,992.83
2023-08-02T06:57:21.874Z,992.82
2023-08-02T06:58:34.917Z,992.77
2023-08-02T06:59:34.214Z,992.75
2023-08-02T07:00:21.565Z,992.76
2023-08-02T07:01:21.712Z,992.75
2023-08-02T07:03:58.688Z,992.70
2023-08-02T07:04:58.590Z,992.66
2023-08-02T07:05:58.652Z,992.63
2023-08-02T07:06:58.485Z,992.52
2023-08-02T07:07:58.543Z,992.60
2023-08-02T07:08:58.532Z,992.58
2023-08-02T07:09:58.642Z,992.44
2023-08-02T07:10:59.497Z,992.51
2023-08-02T07:12:10.304Z,992.41
2023-08-02T07:12:58.693Z,992.45
2023-08-02T07:15:20.405Z,992.40
2023-08-02T07:16:19.966Z,992.40
2023-08-02T07:17:19.799Z,992.40
2023-08-02T07:18:19.706Z,992.36
2023-08-02T07:20:38.102Z,992.34
2023-08-02T07:21:50.552Z,992.23
2023-08-02T07:22:49.232Z,992.22
2023-08-02T07:24:54.878Z,992.11
2023-08-02T07:25:55.351Z,992.08
2023-08-02T07:26:54.043Z,992.06
2023-08-02T07:28:04.215Z,992.08
2023-08-02T07:28:53.853Z,992.00
2023-08-02T07:29:53.874Z,992.05
2023-08-02T07:31:04.034Z,992.03
2023-08-02T07:31:53.910Z,991.94
2023-08-02T07:32:53.862Z,991.92
2023-08-02T07:33:53.818Z,991.86
2023-08-02T07:34:54.634Z,991.76
2023-08-02T07:35:54.136Z,991.83
2023-08-02T07:36:53.814Z,991.82
2023-08-02T07:37:53.845Z,991.76
2023-08-02T07:38:54.753Z,991.64
2023-08-02T07:39:53.836Z,991.67
2023-08-02T07:40:53.751Z,991.65
2023-08-02T07:41:53.710Z,991.56
2023-08-02T07:42:53.778Z,991.55
2023-08-02T07:43:53.699Z,991.48
2023-08-02T07:44:53.789Z,991.42
2023-08-02T07:45:53.919Z,991.43
2023-08-02T07:46:53.824Z,991.43
2023-08-02T07:47:53.670Z,991.37
2023-08-02T07:49:05.212Z,991.34
2023-08-02T07:50:06.205Z,991.26
2023-08-02T07:51:03.151Z,991.29
2023-08-02T07:51:53.639Z,991.31
2023-08-02T07:52:53.920Z,991.24
2023-08-02T07:53:53.633Z,991.36
2023-08-02T07:54:56.490Z,991.29
2023-08-02T07:55:53.606Z,991.30
2023-08-02T07:56:53.700Z,991.15
2023-08-02T07:57:53.524Z,991.16
2023-08-02T07:58:54.056Z,991.17
2023-08-02T08:00:02.038Z,991.12
2023-08-02T08:02:19.925Z,991.02
2023-08-02T08:05:53.137Z,991.00
2023-08-02T08:06:53.253Z,991.00
2023-08-02T08:07:53.715Z,991.04
2023-08-02T08:08:53.028Z,990.95
2023-08-02T08:09:53.051Z,990.93
2023-08-02T08:10:52.998Z,990.93
2023-08-02T08:12:03.559Z,990.88
2023-08-02T08:12:53.177Z,990.92
2023-08-02T08:13:52.916Z,990.89
2023-08-02T08:14:52.848Z,990.86
2023-08-02T08:15:52.846Z,990.87
2023-08-02T08:16:52.991Z,990.86
2023-08-02T08:17:52.931Z,990.95
2023-08-02T08:18:52.805Z,990.98
2023-08-02T08:19:52.810Z,991.02
2023-08-02T08:20:52.792Z,990.99
2023-08-02T08:22:01.629Z,990.99
2023-08-02T08:22:52.955Z,991.03
2023-08-02T08:25:11.850Z,991.04
2023-08-02T08:26:23.892Z,991.04
2023-08-02T08:29:19.487Z,990.88
2023-08-02T08:31:56.298Z,990.96
2023-08-02T08:34:59.676Z,990.96
2023-08-02T08:38:24.479Z,990.88
2023-08-02T08:41:06.609Z,990.92
2023-08-02T08:50:40.108Z,990.91
2023-08-02T08:51:12.766Z,990.80
2023-08-02T08:52:21.637Z,990.78
2023-08-02T08:54:52.648Z,990.87
2023-08-02T08:55:52.567Z,990.85
2023-08-02T08:56:52.530Z,990.82
2023-08-02T08:58:18.540Z,990.74
2023-08-02T08:59:03.232Z,990.69
2023-08-02T08:59:53.176Z,990.66
2023-08-02T09:01:01.707Z,990.62
2023-08-02T09:03:49.199Z,990.69
2023-08-02T09:14:08.619Z,990.26
2023-08-02T09:15:11.289Z,990.23
2023-08-02T09:16:03.005Z,990.26
2023-08-02T09:17:00.538Z,990.21
2023-08-02T09:18:01.593Z,990.13
2023-08-02T09:19:00.381Z,990.19
2023-08-02T09:20:00.396Z,990.14
2023-08-02T09:24:39.465Z,990.01
2023-08-02T09:25:29.719Z,990.02
2023-08-02T09:26:27.052Z,990.01
2023-08-02T09:27:29.713Z,990.03
2023-08-02T09:28:28.944Z,990.06
2023-08-02T09:29:27.442Z,990.00
2023-08-02T09:30:27.741Z,990.05
2023-08-02T09:31:27.661Z,990.00
2023-08-02T09:32:49.265Z,989.96
2023-08-02T09:33:26.922Z,989.93
2023-08-02T09:34:26.893Z,989.98
2023-08-02T09:35:26.910Z,989.87
2023-08-02T09:36:35.470Z,989.89
2023-08-02T09:37:26.990Z,989.91
2023-08-02T09:38:26.987Z,989.85
2023-08-02T09:39:27.203Z,989.81
2023-08-02T09:40:27.833Z,989.85
2023-08-02T09:42:28.249Z,989.84
2023-08-02T09:43:27.399Z,989.87
2023-08-02T09:44:27.805Z,989.81
2023-08-02T09:45:27.332Z,989.84
2023-08-02T09:46:27.527Z,989.85
2023-08-02T09:47:26.896Z,989.78
2023-08-02T09:48:32.730Z,989.79
2023-08-02T09:49:27.634Z,989.78
2023-08-02T09:50:27.920Z,989.76
2023-08-02T09:51:27.431Z,989.79
2023-08-02T09:52:26.691Z,989.73
2023-08-02T09:53:27.681Z,989.68
2023-08-02T09:54:27.328Z,989.72
2023-08-02T09:55:27.918Z,989.73
2023-08-02T09:56:27.404Z,989.70
2023-08-02T09:57:27.108Z,989.71
2023-08-02T09:58:31.615Z,989.66
2023-08-02T09:59:26.758Z,989.72
2023-08-02T10:00:26.861Z,989.67
2023-08-02T10:01:48.381Z,989.72
2023-08-02T10:02:32.119Z,989.78
2023-08-02T10:03:27.443Z,989.78
2023-08-02T10:04:31.448Z,989.78
2023-08-02T10:05:28.909Z,989.73
2023-08-02T10:06:27.000Z,989.77
2023-08-02T10:07:26.798Z,989.71
2023-08-02T10:08:26.577Z,989.68
2023-08-02T10:09:26.451Z,989.68
2023-08-02T10:10:26.460Z,989.73
2023-08-02T10:11:26.399Z,989.70
2023-08-02T10:12:26.391Z,989.69
2023-08-02T10:13:26.415Z,989.69
2023-08-02T10:14:26.396Z,989.65
2023-08-02T10:15:26.480Z,989.65
2023-08-02T10:16:26.343Z,989.55
2023-08-02T10:17:26.346Z,989.52
2023-08-02T10:18:26.452Z,989.58
2023-08-02T10:19:26.436Z,989.53
2023-08-02T10:20:26.320Z,989.48
2023-08-02T10:21:26.411Z,989.39
2023-08-02T10:22:28.099Z,989.50
2023-08-02T10:23:27.039Z,989.48
2023-08-02T10:24:29.275Z,989.52
2023-08-02T10:25:58.050Z,989.48
2023-08-02T10:26:28.525Z,989.45
2023-08-02T10:27:32.026Z,989.39
2023-08-02T10:28:32.760Z,989.43
2023-08-02T10:29:26.823Z,989.41
2023-08-02T10:30:29.574Z,989.39
2023-08-02T10:31:29.922Z,989.37
2023-08-02T10:32:26.577Z,989.36
2023-08-02T10:33:30.625Z,989.32
2023-08-02T10:34:26.721Z,989.26
2023-08-02T10:35:26.141Z,989.21
2023-08-02T10:36:26.852Z,989.20
2023-08-02T10:37:26.671Z,989.19
2023-08-02T10:38:27.262Z,989.20
2023-08-02T10:39:26.508Z,989.19
2023-08-02T10:40:26.146Z,989.14
2023-08-02T10:41:26.586Z,989.17
2023-08-02T10:42:26.274Z,989.18
2023-08-02T10:43:26.754Z,989.15
2023-08-02T10:44:26.742Z,989.13
2023-08-02T10:45:27.358Z,989.11
2023-08-02T10:46:26.141Z,989.12
2023-08-02T10:47:26.053Z,989.09
2023-08-02T10:48:25.989Z,988.99
2023-08-02T10:49:25.992Z,989.04
2023-08-02T10:50:26.104Z,988.97
2023-08-02T10:51:25.992Z,988.97
2023-08-02T10:52:26.011Z,988.96
2023-08-02T10:53:25.912Z,988.90
2023-08-02T10:54:25.899Z,988.97
2023-08-02T10:55:25.929Z,988.95
2023-08-02T10:56:25.934Z,988.88
2023-08-02T10:57:25.850Z,988.85
2023-08-02T10:58:25.799Z,988.83
2023-08-02T10:59:25.861Z,988.83
2023-08-02T11:00:25.837Z,988.81
2023-08-02T11:01:25.816Z,988.83
2023-08-02T11:02:25.904Z,988.80
2023-08-02T11:03:25.826Z,988.76
2023-08-02T11:04:25.944Z,988.84
2023-08-02T11:05:25.852Z,988.81
2023-08-02T11:06:25.786Z,988.80
2023-08-02T11:07:25.833Z,988.77
2023-08-02T11:08:25.744Z,988.81
2023-08-02T11:09:25.666Z,988.78
2023-08-02T11:10:25.730Z,988.77
2023-08-02T11:11:25.719Z,988.73
2023-08-02T11:12:26.331Z,988.64
2023-08-02T11:13:25.731Z,988.73
2023-08-02T11:14:25.631Z,988.68
2023-08-02T11:15:25.568Z,988.68
2023-08-02T11:16:26.577Z,988.61
2023-08-02T11:19:25.898Z,988.64
2023-08-02T11:20:25.672Z,988.64
2023-08-02T11:21:25.773Z,988.66
2023-08-02T11:22:25.520Z,988.69
2023-08-02T11:23:25.489Z,988.60
2023-08-02T11:24:29.449Z,988.61
2023-08-02T11:26:25.534Z,988.51
2023-08-02T11:28:26.679Z,988.39
2023-08-02T11:29:25.662Z,988.34
2023-08-02T11:30:30.405Z,988.28
2023-08-02T11:31:26.611Z,988.22
2023-08-02T11:32:25.549Z,988.20
2023-08-02T11:33:25.568Z,988.14
2023-08-02T11:34:25.402Z,988.12
2023-08-02T11:35:25.492Z,988.20
2023-08-02T11:36:25.424Z,988.15
2023-08-02T11:37:25.519Z,988.12
2023-08-02T11:38:27.510Z,988.16
2023-08-02T11:39:25.493Z,988.02
2023-08-02T11:40:27.423Z,988.04
2023-08-02T11:41:25.323Z,988.08
2023-08-02T11:42:25.241Z,988.04
2023-08-02T11:43:25.358Z,987.98
2023-08-02T11:44:25.255Z,987.84
2023-08-02T11:45:25.375Z,987.83
2023-08-02T11:46:25.461Z,987.84
2023-08-02T11:47:25.211Z,987.75
2023-08-02T11:48:25.273Z,987.74
2023-08-02T11:49:25.352Z,987.69
2023-08-02T11:50:25.157Z,987.69
2023-08-02T11:51:25.090Z,987.60
2023-08-02T11:52:25.117Z,987.64
2023-08-02T11:53:25.767Z,987.58
2023-08-02T11:54:25.091Z,987.59
2023-08-02T11:55:25.057Z,987.55
2023-08-02T11:56:25.041Z,987.58
2023-08-02T11:57:25.734Z,987.56
2023-08-02T11:58:25.039Z,987.56
2023-08-02T11:59:25.106Z,987.50
2023-08-02T12:00:25.063Z,987.53
2023-08-02T12:01:25.291Z,987.44
2023-08-02T12:02:25.360Z,987.42
2023-08-02T12:03:24.993Z,987.29
2023-08-02T12:04:25.029Z,987.29
2023-08-02T12:05:24.914Z,987.25
2023-08-02T12:06:25.003Z,987.29
2023-08-02T12:07:24.879Z,987.21
2023-08-02T12:08:24.895Z,987.31
2023-08-02T12:09:24.855Z,987.31
2023-08-02T12:10:24.890Z,987.28
2023-08-02T12:11:24.875Z,987.28
2023-08-02T12:12:24.824Z,987.28
2023-08-02T12:13:24.818Z,987.28
2023-08-02T12:14:24.817Z,987.12
2023-08-02T12:15:24.789Z,987.12
2023-08-02T12:16:24.779Z,987.06
2023-08-02T12:17:24.947Z,987.04
2023-08-02T12:18:24.794Z,986.93
2023-08-02T12:19:24.854Z,986.88
2023-08-02T12:20:24.719Z,986.89
2023-08-02T12:21:24.727Z,986.89
2023-08-02T12:22:24.712Z,986.89
2023-08-02T12:23:24.698Z,986.82
2023-08-02T12:24:24.661Z,986.81
2023-08-02T12:25:24.731Z,986.80
2023-08-02T12:26:24.637Z,986.76
2023-08-02T12:27:24.634Z,986.72
2023-08-02T12:28:24.663Z,986.70
2023-08-02T12:29:24.734Z,986.70
2023-08-02T12:30:24.658Z,986.63
2023-08-02T12:31:24.727Z,986.63
2023-08-02T12:32:24.599Z,986.63
2023-08-02T12:33:24.636Z,986.62
2023-08-02T12:34:24.596Z,986.54
2023-08-02T12:35:24.511Z,986.53
2023-08-02T12:36:24.620Z,986.55
2023-08-02T12:37:24.511Z,986.54
2023-08-02T12:38:24.722Z,986.51
2023-08-02T12:39:24.516Z,986.57
2023-08-02T12:40:24.550Z,986.56
2023-08-02T12:41:24.502Z,986.57
2023-08-02T12:42:24.478Z,986.63
2023-08-02T12:43:24.542Z,986.81
2023-08-02T12:44:24.415Z,987.09
2023-08-02T12:45:24.512Z,987.66
2023-08-02T12:46:24.482Z,987.77
2023-08-02T12:47:24.408Z,987.78
2023-08-02T12:48:24.543Z,987.75
2023-08-02T12:49:24.504Z,987.60
2023-08-02T12:50:27.152Z,987.61
2023-08-02T12:51:24.361Z,987.50
2023-08-02T12:52:24.393Z,987.49
2023-08-02T12:54:40.672Z,987.57
2023-08-02T12:55:40.659Z,987.53
2023-08-02T12:56:40.902Z,987.51
2023-08-02T12:57:40.667Z,987.41
2023-08-02T12:58:40.684Z,987.48
2023-08-02T12:59:40.621Z,987.45
2023-08-02T13:00:40.582Z,987.52
2023-08-02T13:01:40.630Z,987.52
2023-08-02T13:02:40.598Z,987.61
2023-08-02T13:03:40.671Z,987.55
2023-08-02T13:04:40.542Z,987.52
2023-08-02T13:05:40.511Z,987.55
2023-08-02T13:06:47.202Z,987.54
2023-08-02T13:07:44.511Z,987.58
2023-08-02T13:08:40.500Z,987.58
2023-08-02T13:09:40.465Z,987.59
2023-08-02T13:10:40.468Z,987.67
2023-08-02T13:11:40.461Z,987.74
2023-08-02T13:12:40.432Z,987.69
2023-08-02T13:13:40.432Z,987.75
2023-08-02T13:14:40.454Z,987.78
2023-08-02T13:15:40.464Z,987.76
2023-08-02T13:16:40.691Z,987.74
2023-08-02T13:17:40.404Z,987.77
2023-08-02T13:18:40.360Z,987.79
2023-08-02T13:19:40.346Z,987.84
2023-08-02T13:20:40.315Z,987.86
2023-08-02T13:21:40.317Z,987.87
2023-08-02T13:22:40.293Z,987.95
2023-08-02T13:23:40.314Z,987.96
2023-08-02T13:24:40.272Z,987.97
2023-08-02T13:25:40.268Z,987.88